createdAt,value
2023-03-06T00:00:46.728Z,7.10
2023-03-06T00:03:14.404Z,6.85
2023-03-06T00:05:41.430Z,6.90
2023-03-06T00:08:10.216Z,7.40
2023-03-06T00:10:38.479Z,6.38
2023-03-06T00:13:07.077Z,6.43
2023-03-06T00:15:34.377Z,5.50
2023-03-06T00:18:04.140Z,6.70
2023-03-06T00:20:31.110Z,6.75
2023-03-06T00:22:58.487Z,6.82
2023-03-06T00:25:26.894Z,7.85
2023-03-06T00:27:53.850Z,7.82
2023-03-06T00:30:23.869Z,7.90
2023-03-06T00:32:55.149Z,7.63
2023-03-06T00:35:24.312Z,6.70
2023-03-06T00:37:52.045Z,6.88
2023-03-06T00:43:05.096Z,6.57
2023-03-06T00:45:33.744Z,6.10
2023-03-06T00:48:02.010Z,6.47
2023-03-06T00:50:29.564Z,5.93
2023-03-06T00:53:02.706Z,6.45
2023-03-06T00:58:13.670Z,5.15
2023-03-06T01:00:44.479Z,6.38
2023-03-06T01:03:11.933Z,6.18
2023-03-06T01:05:39.174Z,6.40
2023-03-06T01:08:12.426Z,5.55
2023-03-06T01:13:07.325Z,6.63
2023-03-06T01:15:36.932Z,6.10
2023-03-06T01:18:05.666Z,6.63
2023-03-06T01:20:32.627Z,5.85
2023-03-06T01:22:59.605Z,6.53
2023-03-06T01:25:28.281Z,6.40
2023-03-06T01:27:57.047Z,6.38
2023-03-06T01:30:24.750Z,5.65
2023-03-06T01:32:54.353Z,6.28
2023-03-06T01:35:23.669Z,6.18
2023-03-06T01:37:52.142Z,5.93
2023-03-06T01:40:21.956Z,7.07
2023-03-06T01:42:50.500Z,6.47
2023-03-06T01:46:00.181Z,5.95
2023-03-06T01:48:28.747Z,7.25
2023-03-06T01:53:24.410Z,5.97
2023-03-06T01:55:52.195Z,9.35
2023-03-06T01:58:19.649Z,6.63
2023-03-06T02:00:47.878Z,6.38
2023-03-06T02:03:17.228Z,5.55
2023-03-06T02:05:45.876Z,6.95
2023-03-06T02:08:15.541Z,6.95
2023-03-06T02:10:43.486Z,6.55
2023-03-06T02:13:10.714Z,7.65
2023-03-06T02:15:38.196Z,6.90
2023-03-06T02:18:05.701Z,7.40
2023-03-06T02:20:38.032Z,7.25
2023-03-06T02:23:10.420Z,7.30
2023-03-06T02:25:41.610Z,6.63
2023-03-06T02:28:11.174Z,7.47
2023-03-06T02:30:44.788Z,6.38
2023-03-06T02:33:13.616Z,6.95
2023-03-06T02:35:41.415Z,7.43
2023-03-06T02:38:10.451Z,6.32
2023-03-06T02:43:05.596Z,6.20
2023-03-06T02:45:36.050Z,7.45
2023-03-06T02:48:03.189Z,6.57
2023-03-06T02:50:30.395Z,5.25
2023-03-06T02:52:57.365Z,6.65
2023-03-06T02:55:25.336Z,5.90
2023-03-06T02:57:56.296Z,7.78
2023-03-06T03:00:25.677Z,6.97
2023-03-06T03:02:53.217Z,7.78
2023-03-06T03:05:20.491Z,7.90
2023-03-06T03:07:53.329Z,6.75
2023-03-06T03:10:21.360Z,8.60
2023-03-06T03:12:48.874Z,8.65
2023-03-06T03:15:16.868Z,7.88
2023-03-06T03:17:45.523Z,7.35
2023-03-06T03:20:14.846Z,8.50
2023-03-06T03:22:42.342Z,7.57
2023-03-06T03:25:09.941Z,7.47
2023-03-06T03:27:37.321Z,6.53
2023-03-06T03:30:06.246Z,6.57
2023-03-06T03:32:33.361Z,7.55
2023-03-06T03:35:03.025Z,6.50
2023-03-06T03:37:30.196Z,7.68
2023-03-06T03:39:59.232Z,9.15
2023-03-06T03:42:26.342Z,7.93
2023-03-06T03:44:54.190Z,7.45
2023-03-06T03:47:22.207Z,8.77
2023-03-06T03:49:50.355Z,7.70
2023-03-06T03:52:21.166Z,6.85
2023-03-06T03:54:48.179Z,6.50
2023-03-06T03:57:15.399Z,7.82
2023-03-06T03:59:47.964Z,7.85
2023-03-06T04:02:23.860Z,7.63
2023-03-06T04:05:10.382Z,7.45
2023-03-06T04:07:38.998Z,8.27
2023-03-06T04:10:07.436Z,8.48
2023-03-06T04:12:36.002Z,7.80
2023-03-06T04:15:04.373Z,7.28
2023-03-06T04:17:34.153Z,8.30
2023-03-06T04:20:03.026Z,7.45
2023-03-06T04:22:31.255Z,7.93
2023-03-06T04:25:00.159Z,7.47
2023-03-06T04:27:27.206Z,7.95
2023-03-06T04:29:56.600Z,8.18
2023-03-06T04:32:25.385Z,7.13
2023-03-06T04:34:52.516Z,7.82
2023-03-06T04:37:21.409Z,7.97
2023-03-06T04:39:48.934Z,7.53
2023-03-06T04:42:17.671Z,7.85
2023-03-06T04:44:44.814Z,8.45
2023-03-06T04:47:12.174Z,8.30
2023-03-06T04:49:40.834Z,8.93
2023-03-06T04:52:08.134Z,7.68
2023-03-06T04:54:35.062Z,8.52
2023-03-06T04:57:02.065Z,9.52
2023-03-06T04:59:30.415Z,9.02
2023-03-06T05:01:58.174Z,8.75
2023-03-06T05:04:25.648Z,8.40
2023-03-06T05:06:52.909Z,8.65
2023-03-06T05:09:19.905Z,8.95
2023-03-06T05:11:46.919Z,9.20
2023-03-06T05:14:14.382Z,9.55
2023-03-06T05:16:42.966Z,7.93
2023-03-06T05:19:09.818Z,8.77
2023-03-06T05:21:37.405Z,8.95
2023-03-06T05:24:05.364Z,9.38
2023-03-06T05:26:32.976Z,6.82
2023-03-06T05:29:00.109Z,8.90
2023-03-06T05:31:28.963Z,9.05
2023-03-06T05:33:57.983Z,8.52
2023-03-06T05:36:25.263Z,8.32
2023-03-06T05:38:54.461Z,8.65
2023-03-06T05:41:21.798Z,7.47
2023-03-06T05:43:48.861Z,10.05
2023-03-06T05:46:15.885Z,8.55
2023-03-06T05:48:51.735Z,10.02
2023-03-06T05:51:20.151Z,10.68
2023-03-06T05:53:47.133Z,9.20
2023-03-06T05:56:14.585Z,9.85
2023-03-06T05:58:42.694Z,9.13
2023-03-06T06:01:10.725Z,9.15
2023-03-06T06:03:38.635Z,8.55
2023-03-06T06:06:07.778Z,8.75
2023-03-06T06:08:36.107Z,7.65
2023-03-06T06:11:04.800Z,9.23
2023-03-06T06:13:32.250Z,8.43
2023-03-06T06:16:00.418Z,7.30
2023-03-06T06:18:27.912Z,9.23
2023-03-06T06:20:56.016Z,7.78
2023-03-06T06:23:23.199Z,7.97
2023-03-06T06:25:51.626Z,7.60
2023-03-06T06:28:18.563Z,7.32
2023-03-06T06:30:46.566Z,7.30
2023-03-06T06:33:14.624Z,6.72
2023-03-06T06:35:43.520Z,8.20
2023-03-06T06:38:10.444Z,6.63
2023-03-06T06:40:37.853Z,7.82
2023-03-06T06:43:06.264Z,7.38
2023-03-06T06:45:33.449Z,8.38
2023-03-06T06:48:00.417Z,7.40
2023-03-06T06:50:27.410Z,8.82
2023-03-06T06:52:55.020Z,7.72
2023-03-06T06:55:22.481Z,7.15
2023-03-06T06:57:49.482Z,8.40
2023-03-06T07:00:19.464Z,7.88
2023-03-06T07:02:49.320Z,7.90
2023-03-06T07:05:16.881Z,7.15
2023-03-06T07:07:44.980Z,7.32
2023-03-06T07:10:14.348Z,7.20
2023-03-06T07:12:41.442Z,8.50
2023-03-06T07:15:09.302Z,8.50
2023-03-06T07:17:38.083Z,9.60
2023-03-06T07:20:07.286Z,9.10
2023-03-06T07:22:48.658Z,7.63
2023-03-06T07:25:17.915Z,9.10
2023-03-06T07:27:51.056Z,8.13
2023-03-06T07:32:49.209Z,6.90
2023-03-06T07:35:20.347Z,9.05
2023-03-06T07:37:47.959Z,7.88
2023-03-06T07:40:14.985Z,9.20
2023-03-06T07:42:42.211Z,10.50
2023-03-06T07:45:13.324Z,9.15
2023-03-06T07:47:40.783Z,8.73
2023-03-06T07:50:10.296Z,8.57
2023-03-06T07:52:37.184Z,10.55
2023-03-06T07:55:04.946Z,9.50
2023-03-06T07:57:31.900Z,8.90
2023-03-06T08:00:06.034Z,10.25
2023-03-06T08:02:40.345Z,10.38
2023-03-06T08:05:12.702Z,8.68
2023-03-06T08:07:40.756Z,10.38
2023-03-06T08:10:08.464Z,8.55
2023-03-06T08:12:37.240Z,8.32
2023-03-06T08:15:06.424Z,10.05
2023-03-06T08:17:33.345Z,8.77
2023-03-06T08:20:00.864Z,9.27
2023-03-06T08:22:31.963Z,10.32
2023-03-06T08:25:01.281Z,9.35
2023-03-06T08:27:28.552Z,11.15
2023-03-06T08:29:55.568Z,9.25
2023-03-06T08:32:24.880Z,8.68
2023-03-06T08:34:52.973Z,10.10
2023-03-06T08:37:20.269Z,9.05
2023-03-06T08:39:55.241Z,11.40
2023-03-06T08:42:23.137Z,10.68
2023-03-06T08:44:50.672Z,10.75
2023-03-06T08:47:18.192Z,10.25
2023-03-06T08:49:45.796Z,9.13
2023-03-06T08:52:12.780Z,9.00
2023-03-06T08:54:39.793Z,8.75
2023-03-06T08:57:09.450Z,9.32
2023-03-06T08:59:37.866Z,9.90
2023-03-06T09:02:06.751Z,9.27
2023-03-06T09:04:34.445Z,10.13
2023-03-06T09:07:01.883Z,11.13
2023-03-06T09:09:29.851Z,9.65
2023-03-06T09:11:59.292Z,10.43
2023-03-06T09:14:28.005Z,10.60
2023-03-06T09:16:55.083Z,8.95
2023-03-06T09:19:22.379Z,9.18
2023-03-06T09:21:50.089Z,10.63
2023-03-06T09:24:17.690Z,9.80
2023-03-06T09:26:46.733Z,9.00
2023-03-06T09:29:16.603Z,9.68
2023-03-06T09:31:46.152Z,8.70
2023-03-06T09:34:13.190Z,9.60
2023-03-06T09:36:55.336Z,9.82
2023-03-06T09:39:25.234Z,8.60
2023-03-06T09:41:55.099Z,9.65
2023-03-06T09:44:23.754Z,11.07
2023-03-06T09:47:24.857Z,8.75
2023-03-06T09:50:14.520Z,9.07
2023-03-06T09:52:46.257Z,9.68
2023-03-06T09:55:17.162Z,9.38
2023-03-06T09:58:08.320Z,10.68
2023-03-06T10:00:38.736Z,8.43
2023-03-06T10:03:17.843Z,9.63
2023-03-06T10:05:47.539Z,8.85
2023-03-06T10:08:31.098Z,8.75
2023-03-06T10:11:01.979Z,9.32
2023-03-06T10:13:35.884Z,8.93
2023-03-06T10:16:08.834Z,9.73
2023-03-06T10:18:39.084Z,8.35
2023-03-06T10:21:20.326Z,8.57
2023-03-06T10:23:53.716Z,8.23
2023-03-06T10:26:23.430Z,8.13
2023-03-06T10:28:57.970Z,9.77
2023-03-06T10:33:56.593Z,8.23
2023-03-06T10:36:30.085Z,7.72
2023-03-06T10:41:30.719Z,6.40
2023-03-06T10:44:23.827Z,7.43
2023-03-06T10:46:53.233Z,8.65
2023-03-06T10:49:42.716Z,7.50
2023-03-06T10:52:21.776Z,7.65
2023-03-06T10:54:48.910Z,7.32
2023-03-06T10:57:24.144Z,6.53
2023-03-06T11:00:06.419Z,6.28
2023-03-06T11:02:36.853Z,4.97
2023-03-06T11:05:19.706Z,5.10
2023-03-06T11:07:54.895Z,4.45
2023-03-06T11:10:23.369Z,6.05
2023-03-06T11:12:57.590Z,3.50
2023-03-06T11:15:25.265Z,3.70
2023-03-06T11:18:01.134Z,3.67
2023-03-06T11:20:48.506Z,4.72
2023-03-06T11:23:19.284Z,5.72
2023-03-06T11:25:48.942Z,3.55
2023-03-06T11:28:20.673Z,3.13
2023-03-06T11:30:49.444Z,3.78
2023-03-06T11:33:22.340Z,4.30
2023-03-06T11:35:56.266Z,3.50
2023-03-06T11:38:32.698Z,4.10
2023-03-06T11:41:01.407Z,3.67
2023-03-06T11:43:34.267Z,3.85
2023-03-06T11:46:06.661Z,4.50
2023-03-06T11:48:37.015Z,4.47
2023-03-06T11:51:11.974Z,3.58
2023-03-06T11:53:40.252Z,3.35
2023-03-06T11:56:22.967Z,3.20
2023-03-06T11:58:57.229Z,4.40
2023-03-06T12:01:28.576Z,3.42
2023-03-06T12:04:43.767Z,3.70
2023-03-06T12:07:29.363Z,4.20
2023-03-06T12:10:02.533Z,4.90
2023-03-06T12:12:45.648Z,4.88
2023-03-06T12:15:23.010Z,4.90
2023-03-06T12:18:03.927Z,4.53
2023-03-06T12:20:41.639Z,2.90
2023-03-06T12:23:22.167Z,3.35
2023-03-06T12:25:52.074Z,4.18
2023-03-06T12:28:40.255Z,3.40
2023-03-06T12:31:18.018Z,3.70
2023-03-06T12:33:51.953Z,2.92
2023-03-06T12:36:29.034Z,3.47
2023-03-06T12:39:09.211Z,3.20
2023-03-06T12:41:56.869Z,3.03
2023-03-06T12:44:51.560Z,3.58
2023-03-06T12:47:22.464Z,4.30
2023-03-06T12:49:53.800Z,4.55
2023-03-06T12:52:29.603Z,3.90
2023-03-06T12:54:59.320Z,3.78
2023-03-06T12:57:26.927Z,2.83
2023-03-06T12:59:54.978Z,3.97
2023-03-06T13:02:58.086Z,4.07
2023-03-06T13:05:49.585Z,3.13
2023-03-06T13:08:46.598Z,3.22
2023-03-06T13:11:37.451Z,3.28
2023-03-06T13:14:22.181Z,4.00
2023-03-06T13:16:49.376Z,3.80
2023-03-06T13:19:19.131Z,3.28
2023-03-06T13:22:26.657Z,2.50
2023-03-06T13:25:28.982Z,4.07
2023-03-06T13:28:04.865Z,4.63
2023-03-06T13:30:52.962Z,3.90
2023-03-06T13:33:52.367Z,3.85
2023-03-06T13:36:28.181Z,4.40
2023-03-06T13:39:06.270Z,3.47
2023-03-06T13:41:56.409Z,3.50
2023-03-06T13:44:51.068Z,2.80
2023-03-06T13:48:02.855Z,3.85
2023-03-06T13:50:37.901Z,2.30
2023-03-06T13:53:28.741Z,3.35
2023-03-06T13:56:05.167Z,2.55
2023-03-06T13:58:44.368Z,2.35
2023-03-06T14:01:22.415Z,2.45
2023-03-06T14:04:17.059Z,2.22
2023-03-06T14:06:51.507Z,2.22
2023-03-06T14:09:26.795Z,2.47
2023-03-06T14:11:58.394Z,2.25
2023-03-06T14:14:33.284Z,1.90
2023-03-06T14:17:04.844Z,2.15
2023-03-06T14:19:37.567Z,2.03
2023-03-06T14:22:06.041Z,2.30
2023-03-06T14:24:36.660Z,2.80
2023-03-06T14:27:04.103Z,1.27
2023-03-06T14:29:33.216Z,1.75
2023-03-06T14:32:06.084Z,2.13
2023-03-06T14:34:37.665Z,1.88
2023-03-06T14:37:07.896Z,2.42
2023-03-06T14:39:37.808Z,2.88
2023-03-06T14:42:06.224Z,3.63
2023-03-06T14:47:28.638Z,3.80
2023-03-06T14:50:24.129Z,2.42
2023-03-06T14:52:54.060Z,3.25
2023-03-06T14:55:23.841Z,3.70
2023-03-06T14:57:59.365Z,3.67
2023-03-06T15:00:32.240Z,3.03
2023-03-06T15:03:02.357Z,3.35
2023-03-06T15:05:30.225Z,2.55
2023-03-06T15:07:59.675Z,2.55
2023-03-06T15:10:30.209Z,3.17
2023-03-06T15:13:08.813Z,2.17
2023-03-06T15:15:36.109Z,2.35
2023-03-06T15:18:28.914Z,3.33
2023-03-06T15:21:06.859Z,3.50
2023-03-06T15:23:39.018Z,2.80
2023-03-06T15:26:23.968Z,3.17
2023-03-06T15:29:08.228Z,3.38
2023-03-06T15:31:36.747Z,3.58
2023-03-06T15:34:25.155Z,3.28
2023-03-06T15:36:54.959Z,3.22
2023-03-06T15:39:33.963Z,2.65
2023-03-06T15:42:05.127Z,3.60
2023-03-06T15:44:33.227Z,3.45
2023-03-06T15:47:08.410Z,3.45
2023-03-06T15:49:39.273Z,3.20
2023-03-06T15:52:06.658Z,2.55
2023-03-06T15:54:33.719Z,3.05
2023-03-06T15:57:01.057Z,2.97
2023-03-06T15:59:33.377Z,2.42
2023-03-06T16:02:04.048Z,2.33
2023-03-06T16:04:31.060Z,2.28
2023-03-06T16:06:59.465Z,3.20
2023-03-06T16:11:59.457Z,3.38
2023-03-06T16:14:36.965Z,2.28
2023-03-06T16:17:04.228Z,2.38
2023-03-06T16:19:33.447Z,3.33
2023-03-06T16:22:01.905Z,2.75
2023-03-06T16:26:59.645Z,2.58
2023-03-06T16:29:30.638Z,4.18
2023-03-06T16:32:03.388Z,2.90
2023-03-06T16:35:11.817Z,3.75
2023-03-06T16:37:50.620Z,2.95
2023-03-06T16:40:23.155Z,3.05
2023-03-06T16:42:53.993Z,2.63
2023-03-06T16:45:21.443Z,2.85
2023-03-06T16:47:48.993Z,3.08
2023-03-06T16:50:22.770Z,2.78
2023-03-06T16:52:52.263Z,3.33
2023-03-06T16:55:19.894Z,3.17
2023-03-06T16:57:47.347Z,4.28
2023-03-06T17:00:15.996Z,3.10
2023-03-06T17:02:44.043Z,3.90
2023-03-06T17:05:12.066Z,3.70
2023-03-06T17:07:39.837Z,3.55
2023-03-06T17:10:11.197Z,2.60
2023-03-06T17:12:38.307Z,2.33
2023-03-06T17:15:07.784Z,2.95
2023-03-06T17:17:36.073Z,3.33
2023-03-06T17:20:04.121Z,2.42
2023-03-06T17:22:33.717Z,3.05
2023-03-06T17:25:00.799Z,2.80
2023-03-06T17:27:29.827Z,2.72
2023-03-06T17:30:02.039Z,3.10
2023-03-06T17:32:29.941Z,2.92
2023-03-06T17:34:57.167Z,3.38
2023-03-06T17:37:25.701Z,7.38
2023-03-06T17:39:52.819Z,11.27
2023-03-06T17:42:21.503Z,5.50
2023-03-06T17:44:51.085Z,5.88
2023-03-06T17:47:19.968Z,2.65
2023-03-06T17:49:47.025Z,4.25
2023-03-06T17:52:13.988Z,4.13
2023-03-06T17:54:41.331Z,3.25
2023-03-06T17:57:10.124Z,3.70
2023-03-06T17:59:37.582Z,3.28
2023-03-06T18:02:07.032Z,3.35
2023-03-06T18:04:35.373Z,3.65
2023-03-06T18:07:02.394Z,4.07
2023-03-06T18:09:29.488Z,4.78
2023-03-06T18:11:56.674Z,4.63
2023-03-06T18:14:25.179Z,4.05
2023-03-06T18:16:52.453Z,3.15
2023-03-06T18:19:21.982Z,4.28
2023-03-06T18:21:49.464Z,4.97
2023-03-06T18:24:16.499Z,4.50
2023-03-06T18:26:44.247Z,4.13
2023-03-06T18:29:11.336Z,4.50
2023-03-06T18:31:42.349Z,4.60
2023-03-06T18:34:11.205Z,5.25
2023-03-06T18:36:40.402Z,5.68
2023-03-06T18:39:09.685Z,4.25
2023-03-06T18:41:37.574Z,3.70
2023-03-06T18:44:05.188Z,5.22
2023-03-06T18:46:33.761Z,4.57
2023-03-06T18:51:29.953Z,4.28
2023-03-06T18:54:00.173Z,4.43
2023-03-06T18:56:38.110Z,4.25
2023-03-06T18:59:06.565Z,4.72
2023-03-06T19:01:34.600Z,4.68
2023-03-06T19:04:03.861Z,4.60
2023-03-06T19:06:31.711Z,3.13
2023-03-06T19:09:04.985Z,4.53
2023-03-06T19:11:32.521Z,4.35
2023-03-06T19:14:01.680Z,4.53
2023-03-06T19:16:30.308Z,3.20
2023-03-06T19:18:57.971Z,4.13
2023-03-06T19:21:26.980Z,3.88
2023-03-06T19:23:57.516Z,2.90
2023-03-06T19:26:28.117Z,4.03
2023-03-06T19:28:57.125Z,4.30
2023-03-06T19:31:27.111Z,3.13
2023-03-06T19:34:02.311Z,2.97
2023-03-06T19:36:33.689Z,4.05
2023-03-06T19:39:04.116Z,3.40
2023-03-06T19:41:33.391Z,5.32
2023-03-06T19:44:09.901Z,3.38
2023-03-06T19:46:41.526Z,2.70
2023-03-06T19:49:13.649Z,3.47
2023-03-06T19:51:40.758Z,3.08
2023-03-06T19:54:07.999Z,4.15
2023-03-06T19:56:36.779Z,2.10
2023-03-06T19:59:05.085Z,3.38
2023-03-06T20:01:34.296Z,2.55
2023-03-06T20:04:01.662Z,3.33
2023-03-06T20:06:30.342Z,2.25
2023-03-06T20:11:25.860Z,3.70
2023-03-06T20:16:21.394Z,1.52
2023-03-06T20:18:49.802Z,2.58
2023-03-06T20:21:16.874Z,3.30
2023-03-06T20:23:44.108Z,3.50
2023-03-06T20:26:13.321Z,3.85
2023-03-06T20:28:41.658Z,2.75
2023-03-06T20:31:11.255Z,3.40
2023-03-06T20:33:41.622Z,2.95
2023-03-06T20:36:12.298Z,3.83
2023-03-06T20:38:40.566Z,3.25
2023-03-06T20:41:08.920Z,2.83
2023-03-06T20:43:35.942Z,4.72
2023-03-06T20:46:06.013Z,3.80
2023-03-06T20:48:38.513Z,3.97
2023-03-06T20:51:07.639Z,4.25
2023-03-06T20:53:37.741Z,3.97
2023-03-06T20:56:05.572Z,2.88
2023-03-06T20:58:32.717Z,2.25
2023-03-06T21:01:02.294Z,3.90
2023-03-06T21:03:29.794Z,4.38
2023-03-06T21:05:58.355Z,3.28
2023-03-06T21:08:25.387Z,3.35
2023-03-06T21:10:52.345Z,2.95
2023-03-06T21:13:19.846Z,3.78
2023-03-06T21:15:48.063Z,3.17
2023-03-06T21:18:15.592Z,4.25
2023-03-06T21:20:44.419Z,3.55
2023-03-06T21:23:12.802Z,2.90
2023-03-06T21:28:16.652Z,2.40
2023-03-06T21:30:43.998Z,4.13
2023-03-06T21:33:12.829Z,2.67
2023-03-06T21:35:41.016Z,3.13
2023-03-06T21:38:08.221Z,2.90
2023-03-06T21:40:36.970Z,3.50
2023-03-06T21:43:04.326Z,3.00
2023-03-06T21:45:31.515Z,2.80
2023-03-06T21:47:58.952Z,2.75
2023-03-06T21:50:26.778Z,4.20
2023-03-06T21:52:54.216Z,3.05
2023-03-06T21:55:21.610Z,2.80
2023-03-06T21:57:51.522Z,3.83
2023-03-06T22:00:19.702Z,4.63
2023-03-06T22:02:47.813Z,3.97
2023-03-06T22:05:14.905Z,3.63
2023-03-06T22:07:42.670Z,3.05
2023-03-06T22:10:15.665Z,2.95
2023-03-06T22:12:42.994Z,2.63
2023-03-06T22:15:12.170Z,3.67
2023-03-06T22:17:41.654Z,2.78
2023-03-06T22:20:10.239Z,2.22
2023-03-06T22:22:37.292Z,3.38
2023-03-06T22:25:05.088Z,3.85
2023-03-06T22:27:32.046Z,3.45
2023-03-06T22:30:00.426Z,3.72
2023-03-06T22:32:28.780Z,3.33
2023-03-06T22:34:55.743Z,3.08
2023-03-06T22:37:22.796Z,3.38
2023-03-06T22:39:49.712Z,4.20
2023-03-06T22:42:16.624Z,3.03
2023-03-06T22:44:44.246Z,2.97
2023-03-06T22:47:11.314Z,2.80
2023-03-06T22:49:41.425Z,3.90
2023-03-06T22:52:09.077Z,3.85
2023-03-06T22:54:36.233Z,4.15
2023-03-06T22:57:03.151Z,3.70
2023-03-06T22:59:30.174Z,2.60
2023-03-06T23:01:57.407Z,2.70
2023-03-06T23:04:26.514Z,3.10
2023-03-06T23:06:56.361Z,2.72
2023-03-06T23:12:11.560Z,3.28
2023-03-06T23:14:57.409Z,3.78
2023-03-06T23:17:43.471Z,5.38
2023-03-06T23:20:29.030Z,5.53
2023-03-06T23:23:16.343Z,4.65
2023-03-06T23:25:43.954Z,5.88
2023-03-06T23:28:12.008Z,6.05
2023-03-06T23:30:39.488Z,5.18
2023-03-06T23:33:06.823Z,6.63
2023-03-06T23:35:34.336Z,6.72
2023-03-06T23:38:03.082Z,6.65
2023-03-06T23:40:33.512Z,6.82
2023-03-06T23:45:28.019Z,5.90
2023-03-06T23:47:54.980Z,7.45
2023-03-06T23:50:23.123Z,5.03
2023-03-06T23:52:51.699Z,6.90
2023-03-06T23:55:19.186Z,7.05
2023-03-06T23:57:47.695Z,6.55
